VTSPVTSM

Guest
Details From VTSP - Phuket Intl
To VTSM - Samui
Flight Number -
Tags generated
Created
Modified
Stats Distance 138 nm / 256 km
Max Altitude 11,900 ft / 3,627 m
Waypoints 4
Social Downloads 4
Likes 0
Share VATSIM

Download

Looking for another format? Having issues loading an existing format? Contact us
Advertisement - Login to hide

Notes

Basic altitude profile: - Ascent Rate: 2500ft/min - Ascent Speed: 250kts - Cruise Altitude: 35000ft - Cruise Speed: 420kts - Descent Rate: 1500ft/min - Descent Speed: 250kts Options: - Use NATs: no - Use PACOTS: no - Use low airways: yes - Use high airways: no

Route

VTSP STN W32 SMU VTSM

ID Type Via Altitude Latitude Longitude Leg Dist Tot Dist Heading (true) Name
O VTSP APT - 0 ft / 0 m 8.11320˚ 98.31687˚ - 0 nm - Phuket Intl
STN VOR - 11,900 ft / 3,627 m 9.12951˚ 99.13475˚ 77 nm 77 nm 38° / 39° SURAT THANI VOR-DME
SMU VOR W32 (AWY-LO) 3,500 ft / 1,067 m 9.54708˚ 100.06174˚ 60 nm 138 nm 65° / 66° SAMUI VOR-DME
O VTSM APT - 0 ft / 0 m 9.54794˚ 100.06246˚ 0 nm 138 nm 39° / 39° Samui

Altitude Profile

Advertisement - Login to hide

VTSP

Details ICAO VTSP (HKT)
Name Phuket Intl
Region Thailand
Timezone Asia/Bangkok (UTC+7.0)
Stats Elevation 82 ft / 25 m (AMSL)
Location 8.113199° 98.316871°
Runways 1
Magnetic Variation 0.433° W

METAR

VTSP 111100Z 30005KT 9000 FEW020 28/22 Q1012 NOSIG

Decode

TAF

TAF AMD VTSP 110500Z 1106/1212 06010KT 9000 FEW020 PROB30 TEMPO 1110/1114 VRB10G25KT 3000 TSRA FEW016CB SCT020 BKN100 BECMG 1112/1114 VRB03KT BECMG 1200/1202 08006KT 9999

Decode

Departure Runways

ID Width Length Bearing (true) Bearing (mag) Surface Threshold Offset Overrun Length
09 148 ft / 45 m 9,870 ft / 3,008 m 84.45° 84.88° Asphalt 0 ft / 0 m 197 ft / 60 m
27 148 ft / 45 m 9,870 ft / 3,008 m 264.46° 264.89° Asphalt 0 ft / 0 m 197 ft / 60 m

VTSM

Details ICAO VTSM (USM)
Name Samui
Region Thailand
Timezone Asia/Bangkok (UTC+7.0)
Stats Elevation 64 ft / 20 m (AMSL)
Location 9.547939° 100.062457°
Runways 1
Magnetic Variation 0.385° W

METAR

VTSM 111130Z 00000KT 9000 FEW020 28/23 Q1012

Decode

TAF

TAF VTSM 110500Z 1106/1206 10008KT 9999 FEW020

Decode

Destination Runways

ID Width Length Bearing (true) Bearing (mag) Surface Threshold Offset Overrun Length
17 148 ft / 45 m 6,795 ft / 2,071 m 174.49° 174.87° Asphalt 853 ft / 260 m 148 ft / 45 m
35 148 ft / 45 m 6,795 ft / 2,071 m 354.49° 354.87° Asphalt 1,109 ft / 338 m 197 ft / 60 m

Popular Alternatives